Portada
METAR-TAF:

METAR-TAF

Aeroports :

Malé, Maldives

latitud: 04-12N, longitud: 073-32E, altitud: 2 m

Observació

L'informe es va fer fa 30 minuts, a les 00:00 UTC
Vent 10 kt del Sud-Oest
Temperatura 29°C
Humitat 89%
Pressió 1008 hPa
Visibilitat 10 km o més
Escasses núvols a una alçada de 1800 ft

METAR: VRMM 180000Z 23010KT 9999 FEW018 29/27 Q1008 NOSIG

Hora: 05:30 (00:30 UTC)

Pronòstic

L'informe es va fer fa 1 hora i 30 minuts, a les 23:00 UTC
Pronòstic vàlid del 18 a les 00 UTC al 19 a les 06 UTC
Vent 8 kt del Oest
Visibilitat 10 km o més
Escasses núvols a una alçada de 1700 ft, Cumulus congestus.
Temporalment
l' 18 a les 00 UTC al 18 a les 06 UTC
Visibilitat: 5000 m
Escasses núvols a una alçada de 1700 ft, Cumulonimbus.
xàfecs de pluja,

TAF: VRMM 172300Z 1800/1906 28008KT 9999 FEW017TCU TEMPO 1800/1806 5000 SHRA FEW017CB

Observacions i pronòstics meteorològics de més de 4000 aeroports (METAR i TAF).

Les estacions disponibles són els punts grocs i vermells al mapa.

Posi el ratolí al punt desitjat per veure el nom de l'estació.

Feu clic per veure les observacions i els pronòstics meteorològics.

Per canviar el mapa: feu clic els botons verds amb una creu de color negre per apropar; al botó verd amb un guió per allunyar la imatge; o en les fletxes verdes per a mapes adjacents.


METAR-TAF: